Time;durP1;ratioP1;P1;durP2;ratioP2;P2;SDS_P1;SDS_P2;PMS_P1;PMS_P2;Temp;Humidity;BMP_temperature;BMP_pressure;BME280_temperature;BME280_humidity;BME280_pressure;Samples;Min_cycle;Max_cycle;Signal;HPM_P1;HPM_P2
2021/06/19 00:00:26;;;;;;;111.70;99.07;;;27.60;58.40;;;;;;5053016;28;20569;-67
2021/06/19 00:02:52;;;;;;;181.73;164.67;;;27.60;58.70;;;;;;5055537;28;20481;-68
2021/06/19 00:05:21;;;;;;;96.70;87.23;;;27.60;59.00;;;;;;5055246;28;20494;-68
2021/06/19 00:07:48;;;;;;;150.83;136.53;;;27.60;58.80;;;;;;5055379;28;20471;-67
2021/06/19 00:10:16;;;;;;;336.30;304.27;;;27.60;58.90;;;;;;5054767;28;20559;-68
2021/06/19 00:12:44;;;;;;;349.77;316.73;;;27.60;59.10;;;;;;5055471;28;20574;-67
2021/06/19 00:15:13;;;;;;;288.03;260.63;;;27.60;59.70;;;;;;5054532;28;20546;-67
2021/06/19 00:17:40;;;;;;;149.00;134.57;;;27.60;59.70;;;;;;5055064;28;20513;-67
2021/06/19 00:20:09;;;;;;;42.63;38.67;;;27.50;59.30;;;;;;5055227;28;20558;-68
2021/06/19 00:22:37;;;;;;;309.63;280.23;;;27.50;59.10;;;;;;5054751;28;20517;-67
2021/06/19 00:25:05;;;;;;;315.40;284.83;;;27.50;59.80;;;;;;5054437;28;20551;-68
2021/06/19 00:27:32;;;;;;;137.90;125.30;;;27.50;60.00;;;;;;5044472;28;20546;-67
2021/06/19 00:29:59;;;;;;;164.60;148.80;;;27.50;60.20;;;;;;5058711;28;20553;-68
2021/06/19 00:32:26;;;;;;;179.27;161.77;;;27.50;60.00;;;;;;5053932;28;20482;-67
2021/06/19 00:34:53;;;;;;;261.70;237.10;;;27.50;60.40;;;;;;5045148;28;20467;-67
2021/06/19 00:37:20;;;;;;;263.87;238.20;;;27.40;60.90;;;;;;5050943;28;20562;-67
2021/06/19 00:39:48;;;;;;;319.27;288.33;;;27.40;61.10;;;;;;5051745;28;20471;-67
2021/06/19 00:42:18;;;;;;;222.37;202.40;;;27.40;61.70;;;;;;5049062;28;20551;-67
2021/06/19 00:44:45;;;;;;;203.87;184.47;;;27.40;61.70;;;;;;5053536;28;20558;-67
2021/06/19 00:47:12;;;;;;;182.93;164.77;;;27.40;61.70;;;;;;5049859;28;20550;-68
2021/06/19 00:49:39;;;;;;;172.43;155.57;;;27.30;61.70;;;;;;5049695;28;20810;-68
2021/06/19 00:52:06;;;;;;;178.77;162.07;;;27.30;61.90;;;;;;5052575;28;20498;-67
2021/06/19 00:54:33;;;;;;;152.23;137.27;;;27.30;62.10;;;;;;5046326;28;20463;-67
2021/06/19 00:57:02;;;;;;;124.90;113.10;;;27.30;62.00;;;;;;5054576;28;20492;-67
2021/06/19 00:59:30;;;;;;;121.20;109.37;;;27.30;62.00;;;;;;5053512;28;20546;-67
2021/06/19 01:01:57;;;;;;;107.53;97.63;;;27.20;61.90;;;;;;5054478;28;20546;-67
2021/06/19 01:04:24;;;;;;;144.07;129.70;;;27.20;62.00;;;;;;5051418;28;20550;-67
2021/06/19 01:06:51;;;;;;;149.33;134.40;;;27.20;61.60;;;;;;5053197;28;20486;-68
2021/06/19 01:09:18;;;;;;;168.40;151.43;;;27.20;62.30;;;;;;5051836;28;20491;-68
2021/06/19 01:11:45;;;;;;;103.00;93.20;;;27.20;62.60;;;;;;5054067;28;20467;-68
2021/06/19 01:14:13;;;;;;;167.23;150.20;;;27.20;62.70;;;;;;5052382;28;20480;-68
2021/06/19 01:16:44;;;;;;;109.23;98.83;;;27.20;62.50;;;;;;5045153;28;21266;-68
2021/06/19 01:19:11;;;;;;;87.33;78.63;;;27.20;62.60;;;;;;5036583;28;20478;-68
2021/06/19 01:21:37;;;;;;;125.10;112.60;;;27.10;62.30;;;;;;5052391;28;20447;-68
2021/06/19 01:24:05;;;;;;;115.60;104.20;;;27.10;62.70;;;;;;5047183;28;21060;-68
2021/06/19 01:26:35;;;;;;;95.10;85.70;;;27.10;62.70;;;;;;5058334;28;20819;-68
2021/06/19 01:29:02;;;;;;;19.47;17.67;;;27.10;62.40;;;;;;5055159;28;20474;-68
2021/06/19 01:31:32;;;;;;;49.03;44.33;;;27.10;61.90;;;;;;5053089;28;20544;-68
2021/06/19 01:33:59;;;;;;;41.57;37.53;;;27.10;62.30;;;;;;5051109;28;20471;-68
2021/06/19 01:36:26;;;;;;;31.17;28.33;;;27.10;62.40;;;;;;5053223;28;20554;-67
2021/06/19 01:38:55;;;;;;;16.03;14.63;;;27.00;62.30;;;;;;5053757;28;20478;-68
2021/06/19 01:41:25;;;;;;;13.27;12.10;;;27.00;62.10;;;;;;5053264;28;20463;-67
2021/06/19 01:44:01;;;;;;;16.53;15.10;;;27.00;62.10;;;;;;5052260;28;20460;-68
2021/06/19 01:46:28;;;;;;;35.87;32.47;;;26.90;62.00;;;;;;5040391;28;20567;-68
2021/06/19 01:48:55;;;;;;;60.20;54.23;;;26.90;62.40;;;;;;5053353;28;20459;-68
2021/06/19 01:51:22;;;;;;;78.30;70.60;;;26.90;62.80;;;;;;5045341;28;20559;-68
2021/06/19 01:53:50;;;;;;;112.03;100.97;;;26.90;63.10;;;;;;5053189;28;20467;-68
2021/06/19 01:56:18;;;;;;;138.10;124.23;;;26.90;63.70;;;;;;5053063;28;20481;-67
2021/06/19 01:58:45;;;;;;;119.53;107.73;;;26.90;64.20;;;;;;5052046;28;20837;-67
2021/06/19 02:01:15;;;;;;;133.57;119.80;;;26.90;64.60;;;;;;5046392;28;20859;-68
2021/06/19 02:03:43;;;;;;;117.43;105.27;;;26.90;64.50;;;;;;5045201;28;20459;-67
2021/06/19 02:06:10;;;;;;;49.23;44.77;;;26.90;64.50;;;;;;5053275;28;20494;-68
2021/06/19 02:08:38;;;;;;;33.00;29.97;;;26.80;64.00;;;;;;5050346;28;20482;-68
2021/06/19 02:11:06;;;;;;;58.57;52.90;;;26.90;63.60;;;;;;5053102;28;20546;-68
2021/06/19 02:13:35;;;;;;;53.20;48.27;;;26.80;63.40;;;;;;5052550;28;20481;-68
2021/06/19 02:16:02;;;;;;;63.83;57.60;;;26.80;63.90;;;;;;5051078;28;20475;-68
2021/06/19 02:18:34;;;;;;;65.17;58.87;;;26.80;64.10;;;;;;5051719;28;20470;-68
2021/06/19 02:21:01;;;;;;;60.47;54.73;;;26.80;64.50;;;;;;5052358;28;20536;-68
2021/06/19 02:23:28;;;;;;;53.37;48.30;;;26.80;64.90;;;;;;5048590;28;20474;-67
2021/06/19 02:25:55;;;;;;;38.30;34.83;;;26.80;65.00;;;;;;5052506;28;20805;-68
2021/06/19 02:28:24;;;;;;;35.23;31.90;;;26.70;64.70;;;;;;5072037;28;20476;-68
2021/06/19 02:30:55;;;;;;;21.00;19.40;;;26.70;64.40;;;;;;5072763;28;20477;-68
2021/06/19 02:33:22;;;;;;;35.03;31.73;;;26.70;64.50;;;;;;5055075;28;20976;-67
2021/06/19 02:35:52;;;;;;;28.63;26.10;;;26.70;64.60;;;;;;5050788;28;20463;-67
2021/06/19 02:38:19;;;;;;;30.13;27.43;;;26.70;64.70;;;;;;5050923;28;20991;-68
2021/06/19 02:40:47;;;;;;;29.20;26.77;;;26.70;64.70;;;;;;5050746;28;20546;-67
2021/06/19 02:43:15;;;;;;;29.20;26.67;;;26.70;64.80;;;;;;5036332;28;20584;-67
2021/06/19 02:45:42;;;;;;;17.53;16.20;;;26.70;65.00;;;;;;5047346;28;20474;-67
2021/06/19 02:48:10;;;;;;;16.77;15.27;;;26.70;64.90;;;;;;5049907;28;20559;-67
2021/06/19 02:50:39;;;;;;;18.57;16.87;;;26.70;64.90;;;;;;5050201;28;20467;-66
2021/06/19 02:53:08;;;;;;;21.20;19.40;;;26.60;64.80;;;;;;5055861;28;20458;-67
2021/06/19 02:55:36;;;;;;;18.80;17.20;;;26.60;65.10;;;;;;5066196;28;21028;-67
2021/06/19 02:58:06;;;;;;;18.40;16.77;;;26.60;65.10;;;;;;5032108;28;20548;-68
2021/06/19 03:00:33;;;;;;;12.40;11.40;;;26.60;65.20;;;;;;5044445;28;20550;-68
2021/06/19 03:03:01;;;;;;;22.87;20.77;;;26.60;65.00;;;;;;5051905;28;20459;-68
2021/06/19 03:05:29;;;;;;;19.20;17.50;;;26.60;65.50;;;;;;5052536;28;20478;-68
2021/06/19 03:07:57;;;;;;;21.40;19.30;;;26.50;65.90;;;;;;5052078;28;20483;-68
2021/06/19 03:10:27;;;;;;;20.37;18.50;;;26.50;66.30;;;;;;5051955;28;20462;-68
2021/06/19 03:12:54;;;;;;;16.37;15.17;;;26.50;66.20;;;;;;5051860;28;20459;-68
2021/06/19 03:15:21;;;;;;;15.10;13.87;;;26.50;66.10;;;;;;5050934;28;20467;-68
2021/06/19 03:17:48;;;;;;;15.03;13.73;;;26.50;66.00;;;;;;5050364;28;20542;-68
2021/06/19 03:20:17;;;;;;;18.37;16.73;;;26.50;66.00;;;;;;5050489;28;20479;-68
2021/06/19 03:22:46;;;;;;;18.60;17.07;;;26.50;66.10;;;;;;5050514;28;20490;-68
2021/06/19 03:25:16;;;;;;;19.10;17.50;;;26.50;66.30;;;;;;5040613;28;20563;-68
2021/06/19 03:27:44;;;;;;;19.53;17.63;;;26.50;66.30;;;;;;5060216;28;20480;-68
2021/06/19 03:30:13;;;;;;;17.50;16.00;;;26.50;66.30;;;;;;5071793;28;20462;-68
2021/06/19 03:32:40;;;;;;;22.37;20.47;;;26.50;66.40;;;;;;5071992;28;20681;-68
2021/06/19 03:35:09;;;;;;;21.37;19.47;;;26.40;66.40;;;;;;5071951;28;20794;-68
2021/06/19 03:37:37;;;;;;;19.40;17.80;;;26.40;66.50;;;;;;5071812;28;20471;-68
2021/06/19 03:40:06;;;;;;;17.50;16.07;;;26.40;66.60;;;;;;5072239;28;20552;-68
2021/06/19 03:42:33;;;;;;;18.07;16.57;;;26.40;66.70;;;;;;5054165;28;20579;-68
2021/06/19 03:45:01;;;;;;;15.90;14.67;;;26.40;66.80;;;;;;5042859;28;21231;-68
2021/06/19 03:47:28;;;;;;;21.77;19.87;;;26.50;66.90;;;;;;5052243;28;20471;-67
2021/06/19 03:49:55;;;;;;;25.63;23.33;;;26.40;66.90;;;;;;5051681;28;21949;-68
2021/06/19 03:52:22;;;;;;;19.40;17.90;;;26.40;67.10;;;;;;5051890;28;20554;-68
2021/06/19 03:54:49;;;;;;;15.90;14.70;;;26.40;67.30;;;;;;5051786;28;20493;-68
2021/06/19 03:57:24;;;;;;;20.90;19.00;;;26.40;67.30;;;;;;5051904;28;20475;-69
2021/06/19 03:59:51;;;;;;;20.07;18.20;;;26.50;67.20;;;;;;5051707;28;20566;-68
2021/06/19 04:02:20;;;;;;;33.70;30.80;;;26.50;67.30;;;;;;5051952;28;20542;-68
2021/06/19 04:04:47;;;;;;;22.67;20.77;;;26.50;67.30;;;;;;5051706;28;20534;-68
2021/06/19 04:07:14;;;;;;;34.00;31.03;;;26.50;67.60;;;;;;5051862;28;20463;-68
2021/06/19 04:09:41;;;;;;;35.77;32.67;;;26.50;67.50;;;;;;5053754;28;20482;-68
2021/06/19 04:12:10;;;;;;;30.03;27.43;;;26.50;67.50;;;;;;5055674;28;20458;-69
2021/06/19 04:14:37;;;;;;;23.57;21.50;;;26.50;67.50;;;;;;5055401;28;20495;-68
2021/06/19 04:17:04;;;;;;;16.63;15.27;;;26.50;67.70;;;;;;5055569;28;20676;-68
2021/06/19 04:19:33;;;;;;;11.30;10.40;;;26.50;67.50;;;;;;5055403;28;20467;-68
2021/06/19 04:22:00;;;;;;;10.60;9.90;;;26.50;67.50;;;;;;5055146;28;20467;-68
2021/06/19 04:24:27;;;;;;;11.17;10.37;;;26.50;67.50;;;;;;5055447;28;20534;-68
2021/06/19 04:26:55;;;;;;;10.97;10.17;;;26.50;67.50;;;;;;5054835;28;20545;-68
2021/06/19 04:29:23;;;;;;;11.40;10.37;;;26.50;67.60;;;;;;5055359;28;20865;-68
2021/06/19 04:31:52;;;;;;;10.83;10.03;;;26.50;67.60;;;;;;5054934;28;20464;-68
2021/06/19 04:34:22;;;;;;;10.37;9.53;;;26.60;67.70;;;;;;5055081;28;20467;-68
2021/06/19 04:36:51;;;;;;;10.83;10.03;;;26.60;67.80;;;;;;5054744;28;20471;-68
2021/06/19 04:39:18;;;;;;;9.87;8.87;;;26.60;67.80;;;;;;5055117;28;21005;-68
2021/06/19 04:41:53;;;;;;;10.10;9.40;;;26.60;67.70;;;;;;5052287;28;20495;-68
2021/06/19 04:47:02;;;;;;;10.97;10.17;;;26.70;67.90;;;;;;5054285;28;20461;-68
2021/06/19 04:49:30;;;;;;;11.60;9.83;;;26.70;68.30;;;;;;5054758;28;20968;-68
2021/06/19 04:51:58;;;;;;;10.13;9.33;;;26.60;68.00;;;;;;5054623;28;20455;-68
2021/06/19 04:54:26;;;;;;;11.30;10.40;;;26.70;68.00;;;;;;5054753;28;20459;-68
2021/06/19 04:56:52;;;;;;;10.63;9.73;;;26.70;68.00;;;;;;5054653;28;20554;-68
2021/06/19 04:59:19;;;;;;;10.80;10.10;;;26.70;68.00;;;;;;5054614;28;20475;-68
2021/06/19 05:01:46;;;;;;;12.30;11.20;;;26.70;68.10;;;;;;5054494;28;20550;-68
2021/06/19 05:04:13;;;;;;;11.90;10.70;;;26.70;68.10;;;;;;5054741;28;21005;-68
2021/06/19 05:06:40;;;;;;;10.30;9.60;;;26.70;68.20;;;;;;5054596;28;20539;-69
2021/06/19 05:09:08;;;;;;;10.80;10.00;;;26.80;68.20;;;;;;5054114;28;20459;-68
2021/06/19 05:11:35;;;;;;;11.03;10.33;;;26.80;68.20;;;;;;5054763;28;20471;-68
2021/06/19 05:14:02;;;;;;;11.03;10.00;;;26.80;68.50;;;;;;5053936;28;20475;-68
2021/06/19 05:16:29;;;;;;;11.20;10.40;;;26.90;68.40;;;;;;5054527;28;20475;-68
2021/06/19 05:18:56;;;;;;;10.27;9.57;;;26.90;68.20;;;;;;5053744;28;20475;-67
2021/06/19 05:21:23;;;;;;;11.40;10.60;;;26.90;68.20;;;;;;5054101;28;20545;-68
2021/06/19 05:23:50;;;;;;;11.23;10.20;;;27.00;68.30;;;;;;5053958;28;20474;-67
2021/06/19 05:26:18;;;;;;;12.93;12.10;;;27.00;68.10;;;;;;5057434;28;20459;-67
2021/06/19 05:28:45;;;;;;;12.30;11.37;;;27.10;68.10;;;;;;5073814;28;20545;-68
2021/06/19 05:31:12;;;;;;;10.63;10.00;;;27.10;68.00;;;;;;5074265;28;20469;-68
2021/06/19 05:33:39;;;;;;;11.70;10.60;;;27.10;67.90;;;;;;5074014;28;20470;-68
2021/06/19 05:36:06;;;;;;;11.90;11.10;;;27.20;68.20;;;;;;5073730;28;20541;-68
2021/06/19 05:38:33;;;;;;;11.80;10.90;;;27.20;68.40;;;;;;5074092;28;20467;-68
2021/06/19 05:41:00;;;;;;;11.90;10.93;;;27.20;68.20;;;;;;5073666;28;20549;-68
2021/06/19 05:43:28;;;;;;;12.47;11.47;;;27.30;68.20;;;;;;5040961;28;20542;-68
2021/06/19 05:45:55;;;;;;;12.20;11.30;;;27.30;68.00;;;;;;5052142;28;20548;-68
2021/06/19 05:48:22;;;;;;;11.83;10.93;;;27.40;68.20;;;;;;5053771;28;20665;-68
2021/06/19 05:50:48;;;;;;;12.60;11.60;;;27.40;68.20;;;;;;5053469;28;20546;-67
2021/06/19 05:53:15;;;;;;;12.57;11.57;;;27.50;68.10;;;;;;5053893;28;20943;-68
2021/06/19 05:55:42;;;;;;;11.27;10.43;;;27.50;68.00;;;;;;5053584;28;20965;-68
2021/06/19 05:58:09;;;;;;;12.47;11.57;;;27.60;68.70;;;;;;5053176;28;20505;-67
2021/06/19 06:00:37;;;;;;;12.40;11.60;;;27.70;69.50;;;;;;5053398;28;20953;-69
2021/06/19 06:03:05;;;;;;;12.73;11.83;;;27.80;68.80;;;;;;5045969;28;20551;-68
2021/06/19 06:05:32;;;;;;;11.37;10.57;;;27.80;67.60;;;;;;5033678;28;20472;-68
2021/06/19 06:08:00;;;;;;;12.03;11.03;;;27.90;67.00;;;;;;5033151;28;20541;-67
2021/06/19 06:10:27;;;;;;;12.40;11.30;;;28.10;66.70;;;;;;5044801;28;20471;-67
2021/06/19 06:12:54;;;;;;;12.73;11.53;;;28.20;67.20;;;;;;5053072;28;21011;-67
2021/06/19 06:15:21;;;;;;;12.70;11.70;;;28.30;67.40;;;;;;5053237;28;20459;-67
2021/06/19 06:17:49;;;;;;;12.30;11.30;;;28.50;67.50;;;;;;5052599;28;20546;-67
2021/06/19 06:20:17;;;;;;;11.47;10.47;;;28.60;67.90;;;;;;5053365;28;20477;-67
2021/06/19 06:22:44;;;;;;;12.10;11.10;;;28.80;67.40;;;;;;5053186;28;20471;-68
2021/06/19 06:25:12;;;;;;;11.20;10.20;;;28.90;67.30;;;;;;5052691;28;20542;-68
2021/06/19 06:27:39;;;;;;;10.87;10.00;;;29.00;66.10;;;;;;5067938;28;20484;-68
2021/06/19 06:30:08;;;;;;;14.67;13.53;;;29.20;64.90;;;;;;5072407;28;20471;-67
2021/06/19 06:32:36;;;;;;;11.77;10.77;;;29.30;63.80;;;;;;5072339;28;21040;-68
2021/06/19 06:35:05;;;;;;;12.47;11.27;;;29.50;63.10;;;;;;5072740;28;20539;-69
2021/06/19 06:37:31;;;;;;;10.40;9.70;;;29.60;63.80;;;;;;5072831;28;20514;-66
2021/06/19 06:39:59;;;;;;;10.70;10.00;;;29.70;63.90;;;;;;5072449;28;20462;-66
2021/06/19 06:42:26;;;;;;;10.70;9.90;;;29.80;63.40;;;;;;5056881;28;20518;-67
2021/06/19 06:44:52;;;;;;;9.70;9.00;;;29.80;62.90;;;;;;5042535;28;20969;-67
2021/06/19 06:47:19;;;;;;;9.47;8.87;;;29.90;62.00;;;;;;5052786;28;20483;-66
2021/06/19 06:49:49;;;;;;;9.90;9.20;;;30.10;62.40;;;;;;5052696;28;20542;-67
2021/06/19 06:52:17;;;;;;;10.30;9.40;;;30.10;62.40;;;;;;5052135;28;21635;-67
2021/06/19 06:54:44;;;;;;;11.50;10.40;;;30.30;61.40;;;;;;5052665;28;20501;-67
2021/06/19 06:57:11;;;;;;;9.67;9.07;;;30.40;61.70;;;;;;5052339;28;20470;-67
2021/06/19 06:59:39;;;;;;;10.70;10.00;;;30.50;61.00;;;;;;5052520;28;20478;-67
2021/06/19 07:02:08;;;;;;;9.90;9.20;;;30.60;60.20;;;;;;5052342;28;20798;-67
2021/06/19 07:04:35;;;;;;;10.20;9.23;;;30.70;59.90;;;;;;5052381;28;20471;-67
2021/06/19 07:07:02;;;;;;;9.87;9.27;;;30.90;59.20;;;;;;5052013;28;20463;-68
2021/06/19 07:09:30;;;;;;;10.50;9.70;;;31.00;58.90;;;;;;5052491;28;20467;-68
2021/06/19 07:11:57;;;;;;;9.60;8.70;;;31.10;59.00;;;;;;5052240;28;20817;-68
2021/06/19 07:14:24;;;;;;;10.30;9.50;;;31.20;58.80;;;;;;5052292;28;20543;-68
2021/06/19 07:16:51;;;;;;;10.27;9.57;;;31.40;59.00;;;;;;5052428;28;20546;-68
2021/06/19 07:19:18;;;;;;;10.03;9.23;;;31.50;58.70;;;;;;5052013;28;20546;-68
2021/06/19 07:21:45;;;;;;;12.33;10.60;;;31.70;58.90;;;;;;5052378;28;20467;-68
2021/06/19 07:24:11;;;;;;;10.30;9.40;;;31.80;59.00;;;;;;5051945;28;20463;-66
2021/06/19 07:26:40;;;;;;;10.77;9.87;;;31.90;58.50;;;;;;5052270;28;20957;-67
2021/06/19 07:29:06;;;;;;;13.07;11.93;;;32.00;58.20;;;;;;5051800;28;20473;-68
2021/06/19 07:31:33;;;;;;;13.00;11.90;;;32.10;57.70;;;;;;5052197;28;20554;-68
2021/06/19 07:34:00;;;;;;;10.90;10.10;;;32.30;58.50;;;;;;5051803;28;20542;-68
2021/06/19 07:36:27;;;;;;;10.80;10.00;;;32.30;58.10;;;;;;5052144;28;20868;-67
2021/06/19 07:38:54;;;;;;;9.70;9.00;;;32.40;58.00;;;;;;5052166;28;20475;-67
2021/06/19 07:41:21;;;;;;;9.53;8.83;;;32.50;56.80;;;;;;5051999;28;20562;-67
2021/06/19 07:43:49;;;;;;;10.30;9.50;;;32.60;56.30;;;;;;5036492;28;20478;-67
2021/06/19 07:46:16;;;;;;;9.90;9.00;;;32.80;56.80;;;;;;5055769;28;20550;-67
2021/06/19 07:48:43;;;;;;;9.10;8.50;;;32.90;55.70;;;;;;5056156;28;20529;-68
2021/06/19 07:51:09;;;;;;;10.00;9.30;;;33.00;56.10;;;;;;5055605;28;20548;-67
2021/06/19 07:53:36;;;;;;;9.27;8.57;;;33.00;55.50;;;;;;5056012;28;20477;-67
2021/06/19 07:56:06;;;;;;;10.37;9.43;;;33.20;55.10;;;;;;5055477;28;20489;-68
2021/06/19 07:58:33;;;;;;;9.57;8.87;;;33.10;55.20;;;;;;5055832;28;20918;-68
2021/06/19 08:01:01;;;;;;;11.73;10.83;;;33.20;55.40;;;;;;5055219;28;20550;-68
2021/06/19 08:03:28;;;;;;;11.03;10.13;;;33.30;55.20;;;;;;5055822;28;20558;-68
2021/06/19 08:05:55;;;;;;;10.80;9.70;;;33.30;54.80;;;;;;5055812;28;21033;-68
2021/06/19 08:08:22;;;;;;;8.87;8.27;;;33.40;54.20;;;;;;5055245;28;20482;-68
2021/06/19 08:10:51;;;;;;;10.27;9.37;;;33.40;54.20;;;;;;5055650;28;20866;-68
2021/06/19 08:13:18;;;;;;;9.10;8.40;;;33.40;54.40;;;;;;5055367;28;20464;-68
2021/06/19 08:15:45;;;;;;;11.33;10.43;;;33.40;54.20;;;;;;5055568;28;20493;-68
2021/06/19 08:18:13;;;;;;;10.77;9.97;;;33.50;54.00;;;;;;5054790;28;20476;-68
2021/06/19 08:20:40;;;;;;;10.03;9.03;;;33.60;53.90;;;;;;5055577;28;20474;-68
2021/06/19 08:23:07;;;;;;;10.37;9.07;;;33.50;53.20;;;;;;5054996;28;20554;-68
2021/06/19 08:25:33;;;;;;;9.97;9.27;;;33.60;53.10;;;;;;5055487;28;20550;-68
2021/06/19 08:28:00;;;;;;;10.70;10.00;;;33.70;54.20;;;;;;5072764;28;20557;-68
2021/06/19 08:30:27;;;;;;;10.60;9.50;;;33.70;53.70;;;;;;5075180;28;20544;-68
2021/06/19 08:32:54;;;;;;;10.37;9.47;;;33.80;53.60;;;;;;5075105;28;20864;-66
2021/06/19 08:35:22;;;;;;;10.13;9.23;;;33.90;53.50;;;;;;5075086;28;20533;-67
2021/06/19 08:37:49;;;;;;;11.50;10.40;;;33.90;52.90;;;;;;5075087;28;20723;-67
2021/06/19 08:40:16;;;;;;;9.97;9.07;;;34.00;53.60;;;;;;5074749;28;20465;-67
2021/06/19 08:42:43;;;;;;;8.50;7.80;;;34.00;53.40;;;;;;5054391;28;20547;-68
2021/06/19 08:45:11;;;;;;;9.30;8.50;;;34.00;52.30;;;;;;5047000;28;20491;-68
2021/06/19 08:47:38;;;;;;;8.83;8.33;;;34.00;52.20;;;;;;5054953;28;20593;-68
2021/06/19 08:50:07;;;;;;;8.60;7.97;;;33.90;52.20;;;;;;5054577;28;20554;-67
2021/06/19 08:52:36;;;;;;;9.57;8.87;;;33.90;52.40;;;;;;5055052;28;20551;-68
2021/06/19 08:55:04;;;;;;;9.30;8.60;;;33.90;52.70;;;;;;5053711;28;20463;-68
2021/06/19 08:57:31;;;;;;;8.70;8.07;;;33.80;52.30;;;;;;5054998;28;20481;-67
2021/06/19 08:59:58;;;;;;;8.53;8.00;;;33.70;52.20;;;;;;5054663;28;20464;-67
2021/06/19 09:02:25;;;;;;;10.30;9.50;;;33.60;52.20;;;;;;5052713;28;20550;-67
2021/06/19 09:04:57;;;;;;;10.10;9.50;;;33.50;53.40;;;;;;5034826;28;20602;-67
2021/06/19 09:07:40;;;;;;;8.70;8.10;;;33.40;52.80;;;;;;5034074;28;20476;-68
2021/06/19 09:10:27;;;;;;;8.63;8.03;;;33.30;52.70;;;;;;5043076;28;20463;-68
2021/06/19 09:13:06;;;;;;;10.90;8.10;;;33.20;52.80;;;;;;5054520;28;20491;-68
2021/06/19 09:15:35;;;;;;;8.10;7.60;;;33.10;53.00;;;;;;5054420;28;21266;-68
2021/06/19 09:18:07;;;;;;;8.37;7.73;;;33.00;53.30;;;;;;5054336;28;20544;-66
2021/06/19 09:20:39;;;;;;;9.20;8.43;;;33.00;53.40;;;;;;5054242;28;20555;-67
2021/06/19 09:23:10;;;;;;;8.93;8.33;;;32.90;53.40;;;;;;5054445;28;20554;-68
2021/06/19 09:25:37;;;;;;;8.60;7.80;;;32.80;53.60;;;;;;5054127;28;20536;-67
2021/06/19 09:28:06;;;;;;;7.57;7.07;;;32.80;53.70;;;;;;5072379;28;20545;-67
2021/06/19 09:30:34;;;;;;;8.47;7.77;;;32.70;53.70;;;;;;5073773;28;20807;-67
2021/06/19 09:33:03;;;;;;;8.90;8.30;;;32.60;53.50;;;;;;5074352;28;20466;-67
2021/06/19 09:35:31;;;;;;;7.60;7.20;;;32.50;53.30;;;;;;5073708;28;21059;-68
2021/06/19 09:38:00;;;;;;;9.50;8.70;;;32.40;53.10;;;;;;5073869;28;20481;-67
2021/06/19 09:40:31;;;;;;;8.20;7.70;;;32.40;53.00;;;;;;5073583;28;21021;-68
2021/06/19 09:43:13;;;;;;;8.43;7.83;;;32.40;53.10;;;;;;5049200;28;20555;-67
2021/06/19 09:45:41;;;;;;;8.93;8.23;;;32.30;53.40;;;;;;5050334;28;20563;-67
2021/06/19 09:48:24;;;;;;;8.87;8.27;;;32.20;53.30;;;;;;5053519;28;20463;-67
2021/06/19 09:51:12;;;;;;;8.43;7.83;;;32.10;53.30;;;;;;5054111;28;20463;-68
2021/06/19 09:53:39;;;;;;;9.20;8.60;;;32.00;53.20;;;;;;5053677;28;20467;-67
2021/06/19 09:56:09;;;;;;;10.90;10.03;;;32.00;53.00;;;;;;5053673;28;20535;-68
2021/06/19 09:58:40;;;;;;;8.63;8.00;;;32.00;53.20;;;;;;5053592;28;20551;-68
2021/06/19 10:01:07;;;;;;;8.93;8.33;;;32.00;53.50;;;;;;5053288;28;20546;-67
2021/06/19 10:03:54;;;;;;;13.90;12.90;;;31.90;53.50;;;;;;5053358;28;20550;-67
2021/06/19 10:06:22;;;;;;;7.83;7.30;;;31.90;53.60;;;;;;5053784;28;20475;-69
2021/06/19 10:08:50;;;;;;;8.13;7.53;;;31.90;51.30;;;;;;5053309;28;20544;-68
2021/06/19 10:11:21;;;;;;;8.13;7.63;;;31.90;52.20;;;;;;5053271;28;20498;-67
2021/06/19 10:13:48;;;;;;;9.20;8.27;;;31.90;52.30;;;;;;5053057;28;20534;-68
2021/06/19 10:16:16;;;;;;;9.17;8.47;;;31.90;52.80;;;;;;5053350;28;20471;-68
2021/06/19 10:18:45;;;;;;;8.93;8.20;;;31.90;52.60;;;;;;5052807;28;20471;-68
2021/06/19 10:21:13;;;;;;;8.67;8.17;;;32.00;52.30;;;;;;5050739;28;20554;-68
2021/06/19 10:23:40;;;;;;;7.80;7.10;;;32.00;51.30;;;;;;5048668;28;20467;-69
2021/06/19 10:26:07;;;;;;;8.77;7.87;;;32.10;50.40;;;;;;5050661;28;20463;-68
2021/06/19 10:28:41;;;;;;;7.97;7.37;;;32.20;50.60;;;;;;5052430;28;20495;-68
2021/06/19 10:31:08;;;;;;;8.07;7.57;;;32.30;50.90;;;;;;5053036;28;20487;-68
2021/06/19 10:33:36;;;;;;;8.00;7.50;;;32.40;50.70;;;;;;5052430;28;20550;-69
2021/06/19 10:36:05;;;;;;;7.70;6.97;;;32.50;51.10;;;;;;5052638;28;21168;-68
2021/06/19 10:38:45;;;;;;;10.00;9.20;;;32.50;51.10;;;;;;5052322;28;20472;-68
2021/06/19 10:41:11;;;;;;;8.60;8.00;;;32.50;51.40;;;;;;5052905;28;20550;-69
2021/06/19 10:43:45;;;;;;;9.47;8.63;;;32.40;51.80;;;;;;5034334;28;20548;-69
2021/06/19 10:46:30;;;;;;;9.27;8.57;;;32.20;52.10;;;;;;5031882;28;20551;-67
2021/06/19 10:48:58;;;;;;;7.33;6.80;;;32.10;51.80;;;;;;5031123;28;21162;-67
2021/06/19 10:51:27;;;;;;;7.17;6.67;;;32.20;51.80;;;;;;5031368;28;20543;-67
2021/06/19 10:54:15;;;;;;;9.63;7.50;;;32.10;51.50;;;;;;5031430;28;20539;-68
2021/06/19 10:56:46;;;;;;;7.77;7.17;;;32.10;51.90;;;;;;5031406;28;21184;-68
2021/06/19 10:59:19;;;;;;;7.50;7.00;;;32.10;50.90;;;;;;5033307;28;20478;-67
2021/06/19 11:01:46;;;;;;;7.67;7.17;;;32.20;50.70;;;;;;5052155;28;20459;-67
2021/06/19 11:04:45;;;;;;;7.07;6.57;;;32.20;51.10;;;;;;5052317;28;20463;-67
2021/06/19 11:07:45;;;;;;;7.87;7.27;;;32.20;49.60;;;;;;5052964;28;20463;-67
2021/06/19 11:10:55;;;;;;;7.27;6.57;;;32.30;49.40;;;;;;5052446;28;20550;-67
2021/06/19 11:13:41;;;;;;;7.43;6.90;;;32.30;49.50;;;;;;5032499;28;21032;-67
2021/06/19 11:16:53;;;;;;;7.30;6.80;;;32.20;50.50;;;;;;5032234;28;20514;-69
2021/06/19 11:19:39;;;;;;;8.17;7.37;;;32.10;50.60;;;;;;5038305;28;20554;-68
2021/06/19 11:22:29;;;;;;;8.00;7.40;;;32.10;50.30;;;;;;5038948;28;20521;-67
2021/06/19 11:25:40;;;;;;;7.90;7.40;;;32.00;51.20;;;;;;5039234;28;20474;-67
2021/06/19 11:28:09;;;;;;;8.40;7.80;;;31.90;51.40;;;;;;4978039;28;20871;-68
2021/06/19 11:30:42;;;;;;;7.50;6.90;;;31.90;51.40;;;;;;5031244;28;20555;-67
2021/06/19 11:33:34;;;;;;;7.20;6.70;;;31.90;52.30;;;;;;5038859;28;20462;-68
2021/06/19 11:36:33;;;;;;;7.23;6.63;;;31.90;50.90;;;;;;5038642;28;20811;-68
2021/06/19 11:39:18;;;;;;;7.50;7.00;;;32.00;50.60;;;;;;5038473;28;20468;-68
2021/06/19 11:41:48;;;;;;;7.90;7.30;;;32.10;50.80;;;;;;5041286;28;20460;-68
2021/06/19 11:44:32;;;;;;;7.97;7.47;;;32.10;51.10;;;;;;5058760;28;20454;-68
2021/06/19 11:46:59;;;;;;;7.77;7.20;;;32.10;50.90;;;;;;5058459;28;20459;-68
2021/06/19 11:49:30;;;;;;;7.33;6.93;;;32.10;51.00;;;;;;5058699;28;20554;-68
2021/06/19 11:51:58;;;;;;;7.53;7.10;;;32.00;51.10;;;;;;5058252;28;20494;-67
2021/06/19 11:54:26;;;;;;;7.20;6.77;;;32.10;51.00;;;;;;5058795;28;20478;-67
2021/06/19 11:56:54;;;;;;;7.97;7.30;;;32.10;50.70;;;;;;5058288;28;20996;-67
2021/06/19 11:59:21;;;;;;;6.77;6.37;;;32.10;51.00;;;;;;5058607;28;20474;-68
2021/06/19 12:01:50;;;;;;;7.83;7.23;;;32.10;50.90;;;;;;5058902;28;20553;-68
2021/06/19 12:04:18;;;;;;;8.70;8.10;;;32.10;51.20;;;;;;5058154;28;20463;-68
2021/06/19 12:06:51;;;;;;;7.50;7.00;;;32.10;51.40;;;;;;5058687;28;20513;-67
2021/06/19 12:09:20;;;;;;;8.50;7.70;;;32.00;51.60;;;;;;5057348;28;20470;-69
2021/06/19 12:11:49;;;;;;;8.00;7.50;;;31.90;51.60;;;;;;5058711;28;20545;-67
2021/06/19 12:14:23;;;;;;;7.80;7.30;;;31.90;51.60;;;;;;5058027;28;20849;-67
2021/06/19 12:16:53;;;;;;;8.40;7.60;;;31.90;51.70;;;;;;5058706;28;20467;-67
2021/06/19 12:19:21;;;;;;;8.43;7.83;;;31.90;51.90;;;;;;5058178;28;21200;-67
2021/06/19 12:21:51;;;;;;;8.53;7.73;;;31.80;52.10;;;;;;5058638;28;20481;-68
2021/06/19 12:24:27;;;;;;;7.70;7.10;;;31.80;52.10;;;;;;5058100;28;20539;-67
2021/06/19 12:27:05;;;;;;;7.87;7.27;;;31.70;52.90;;;;;;5058719;28;20466;-68
2021/06/19 12:29:34;;;;;;;8.90;8.30;;;31.80;52.40;;;;;;5056304;28;20530;-67
2021/06/19 12:32:01;;;;;;;8.43;7.73;;;31.80;52.20;;;;;;5054914;28;20463;-67
2021/06/19 12:34:29;;;;;;;8.63;8.03;;;31.90;52.40;;;;;;5055270;28;20561;-68
2021/06/19 12:36:58;;;;;;;7.93;7.40;;;32.00;52.50;;;;;;5054758;28;20930;-67
2021/06/19 12:39:26;;;;;;;8.10;7.50;;;32.00;52.50;;;;;;5055363;28;20478;-67
2021/06/19 12:41:53;;;;;;;9.20;8.50;;;32.00;52.50;;;;;;5054674;28;20849;-68
2021/06/19 12:44:20;;;;;;;8.70;8.17;;;32.00;52.50;;;;;;5055233;28;20797;-67
2021/06/19 12:46:47;;;;;;;10.17;9.20;;;32.10;52.60;;;;;;5054624;28;20463;-68